createdAt,value
2017-05-10T00:00:07.553Z,951.95
2017-05-10T00:01:08.118Z,951.95
2017-05-10T00:02:07.884Z,951.92
2017-05-10T00:03:07.642Z,951.84
2017-05-10T00:04:08.278Z,951.80
2017-05-10T00:05:07.899Z,951.82
2017-05-10T00:06:07.519Z,951.77
2017-05-10T00:07:08.154Z,951.78
2017-05-10T00:08:07.971Z,951.75
2017-05-10T00:09:07.653Z,951.71
2017-05-10T00:10:08.352Z,951.74
2017-05-10T00:11:07.836Z,951.74
2017-05-10T00:12:07.510Z,951.69
2017-05-10T00:13:08.086Z,951.68
2017-05-10T00:14:07.498Z,951.73
2017-05-10T00:15:07.673Z,951.73
2017-05-10T00:16:08.203Z,951.73
2017-05-10T00:17:08.121Z,951.73
2017-05-10T00:18:07.903Z,951.73
2017-05-10T00:19:07.598Z,951.73
2017-05-10T00:20:08.355Z,951.73
2017-05-10T00:21:08.101Z,951.73
2017-05-10T00:22:08.069Z,951.71
2017-05-10T00:23:07.707Z,951.69
2017-05-10T00:24:08.443Z,951.67
2017-05-10T00:25:07.947Z,951.67
2017-05-10T00:26:07.665Z,951.66
2017-05-10T00:27:08.194Z,951.62
2017-05-10T00:28:07.887Z,951.65
2017-05-10T00:29:07.621Z,951.68
2017-05-10T00:30:08.210Z,951.65
2017-05-10T00:31:07.859Z,951.61
2017-05-10T00:32:07.439Z,951.62
2017-05-10T00:33:08.024Z,951.60
2017-05-10T00:34:07.725Z,951.59
2017-05-10T00:35:08.318Z,951.59
2017-05-10T00:36:08.029Z,951.56
2017-05-10T00:37:07.662Z,951.55
2017-05-10T00:38:08.536Z,951.59
2017-05-10T00:39:08.211Z,951.58
2017-05-10T00:40:07.787Z,951.59
2017-05-10T00:41:07.331Z,951.52
2017-05-10T00:42:07.910Z,951.61
2017-05-10T00:43:07.599Z,951.59
2017-05-10T00:44:08.302Z,951.55
2017-05-10T00:45:09.055Z,951.52
2017-05-10T00:46:07.644Z,951.54
2017-05-10T00:47:08.260Z,951.53
2017-05-10T00:48:08.700Z,951.54
2017-05-10T00:49:08.437Z,951.52
2017-05-10T00:51:06.935Z,951.51
2017-05-10T00:52:07.725Z,951.53
2017-05-10T00:53:08.411Z,951.50
2017-05-10T00:54:08.073Z,951.49
2017-05-10T00:55:07.812Z,951.45
2017-05-10T00:56:07.374Z,951.42
2017-05-10T00:57:08.019Z,951.41
2017-05-10T00:58:07.656Z,951.45
2017-05-10T00:59:08.403Z,951.46
2017-05-10T01:00:08.067Z,951.49
2017-05-10T01:01:07.650Z,951.40
2017-05-10T01:02:08.414Z,951.43
2017-05-10T01:03:07.962Z,951.44
2017-05-10T01:04:07.645Z,951.44
2017-05-10T01:05:08.325Z,951.46
2017-05-10T01:06:07.944Z,951.40
2017-05-10T01:07:07.526Z,951.42
2017-05-10T01:08:08.012Z,951.43
2017-05-10T01:09:07.710Z,951.45
2017-05-10T01:10:08.378Z,951.38
2017-05-10T01:11:08.015Z,951.41
2017-05-10T01:12:07.690Z,951.36
2017-05-10T01:13:08.131Z,951.34
2017-05-10T01:14:07.639Z,951.32
2017-05-10T01:15:08.386Z,951.31
2017-05-10T01:16:08.029Z,951.32
2017-05-10T01:17:07.652Z,951.30
2017-05-10T01:18:08.255Z,951.29
2017-05-10T01:19:07.944Z,951.28
2017-05-10T01:20:07.594Z,951.27
2017-05-10T01:21:08.089Z,951.27
2017-05-10T01:22:07.733Z,951.25
2017-05-10T01:23:08.326Z,951.20
2017-05-10T01:24:08.532Z,951.24
2017-05-10T01:25:08.295Z,951.23
2017-05-10T01:26:08.114Z,951.20
2017-05-10T01:27:07.855Z,951.19
2017-05-10T01:28:07.505Z,951.20
2017-05-10T01:29:08.146Z,951.16
2017-05-10T01:30:08.047Z,951.21
2017-05-10T01:31:07.734Z,951.19
2017-05-10T01:32:08.376Z,951.21
2017-05-10T01:33:08.023Z,951.18
2017-05-10T01:34:07.868Z,951.15
2017-05-10T01:35:07.611Z,951.13
2017-05-10T01:36:28.007Z,951.14
2017-05-10T01:37:07.672Z,951.11
2017-05-10T01:38:08.262Z,951.14
2017-05-10T01:39:07.758Z,951.12
2017-05-10T01:40:07.465Z,951.09
2017-05-10T01:41:08.116Z,951.08
2017-05-10T01:42:07.780Z,951.10
2017-05-10T01:43:07.376Z,951.11
2017-05-10T01:44:07.952Z,951.09
2017-05-10T01:45:07.637Z,951.08
2017-05-10T01:46:08.320Z,951.09
2017-05-10T01:47:08.030Z,951.01
2017-05-10T01:48:07.740Z,951.02
2017-05-10T01:49:08.303Z,951.03
2017-05-10T01:50:07.924Z,951.04
2017-05-10T01:51:07.559Z,951.00
2017-05-10T01:52:08.281Z,950.98
2017-05-10T01:53:07.905Z,951.01
2017-05-10T01:54:07.673Z,950.99
2017-05-10T01:55:08.284Z,950.96
2017-05-10T01:56:07.992Z,951.01
2017-05-10T01:57:07.638Z,950.97
2017-05-10T01:58:09.119Z,950.99
2017-05-10T01:59:07.858Z,950.96
2017-05-10T02:00:07.588Z,951.00
2017-05-10T02:01:08.215Z,950.99
2017-05-10T02:02:07.824Z,951.01
2017-05-10T02:03:07.477Z,950.98
2017-05-10T02:04:08.184Z,951.01
2017-05-10T02:05:07.951Z,950.96
2017-05-10T02:06:07.601Z,950.98
2017-05-10T02:07:08.135Z,951.01
2017-05-10T02:08:07.786Z,950.96
2017-05-10T02:09:07.513Z,950.96
2017-05-10T02:10:08.189Z,950.92
2017-05-10T02:11:07.887Z,950.89
2017-05-10T02:12:07.333Z,950.88
2017-05-10T02:13:08.089Z,950.89
2017-05-10T02:14:07.851Z,950.87
2017-05-10T02:15:07.556Z,950.83
2017-05-10T02:16:08.349Z,950.85
2017-05-10T02:17:08.238Z,950.85
2017-05-10T02:18:07.923Z,950.83
2017-05-10T02:19:07.541Z,950.80
2017-05-10T02:20:08.236Z,950.78
2017-05-10T02:21:08.106Z,950.76
2017-05-10T02:22:07.746Z,950.77
2017-05-10T02:23:07.481Z,950.75
2017-05-10T02:24:08.134Z,950.73
2017-05-10T02:25:07.849Z,950.75
2017-05-10T02:26:07.492Z,950.71
2017-05-10T02:27:08.300Z,950.66
2017-05-10T02:28:07.882Z,950.67
2017-05-10T02:29:07.614Z,950.65
2017-05-10T02:30:08.450Z,950.60
2017-05-10T02:31:08.103Z,950.57
2017-05-10T02:32:07.712Z,950.56
2017-05-10T02:33:08.295Z,950.49
2017-05-10T02:34:07.999Z,950.49
2017-05-10T02:35:07.679Z,950.47
2017-05-10T02:36:08.413Z,950.46
2017-05-10T02:37:07.997Z,950.49
2017-05-10T02:38:07.646Z,950.43
2017-05-10T02:39:08.238Z,950.46
2017-05-10T02:40:07.866Z,950.45
2017-05-10T02:41:07.466Z,950.43
2017-05-10T02:42:08.328Z,950.43
2017-05-10T02:43:07.851Z,950.41
2017-05-10T02:44:07.631Z,950.38
2017-05-10T02:45:08.091Z,950.34
2017-05-10T02:46:07.710Z,950.38
2017-05-10T02:47:08.386Z,950.40
2017-05-10T02:48:08.011Z,950.41
2017-05-10T02:49:07.682Z,950.38
2017-05-10T02:50:08.349Z,950.38
2017-05-10T02:51:08.066Z,950.38
2017-05-10T02:52:07.651Z,950.36
2017-05-10T02:53:08.322Z,950.35
2017-05-10T02:54:08.441Z,950.35
2017-05-10T02:55:08.077Z,950.33
2017-05-10T02:56:07.697Z,950.35
2017-05-10T02:57:08.346Z,950.33
2017-05-10T02:58:07.847Z,950.31
2017-05-10T02:59:07.576Z,950.31
2017-05-10T03:00:08.128Z,950.29
2017-05-10T03:01:07.718Z,950.27
2017-05-10T03:02:08.323Z,950.29
2017-05-10T03:03:08.022Z,950.27
2017-05-10T03:04:07.690Z,950.26
2017-05-10T03:05:08.324Z,950.26
2017-05-10T03:06:08.074Z,950.25
2017-05-10T03:07:07.524Z,950.24
2017-05-10T03:08:07.916Z,950.20
2017-05-10T03:09:07.527Z,950.21
2017-05-10T03:10:08.279Z,950.21
2017-05-10T03:11:07.787Z,950.21
2017-05-10T03:12:07.506Z,950.18
2017-05-10T03:13:08.063Z,950.19
2017-05-10T03:14:07.719Z,950.21
2017-05-10T03:15:08.424Z,950.17
2017-05-10T03:16:08.139Z,950.14
2017-05-10T03:17:08.048Z,950.15
2017-05-10T03:18:07.674Z,950.11
2017-05-10T03:19:08.367Z,950.09
2017-05-10T03:20:08.011Z,950.09
2017-05-10T03:21:07.709Z,950.11
2017-05-10T03:22:08.526Z,950.09
2017-05-10T03:23:08.167Z,950.12
2017-05-10T03:24:08.021Z,950.13
2017-05-10T03:25:07.666Z,950.08
2017-05-10T03:26:08.359Z,950.07
2017-05-10T03:27:07.956Z,950.07
2017-05-10T03:28:07.618Z,950.07
2017-05-10T03:29:08.301Z,950.05
2017-05-10T03:30:07.918Z,950.05
2017-05-10T03:31:07.575Z,950.04
2017-05-10T03:32:08.257Z,950.03
2017-05-10T03:33:07.815Z,950.02
2017-05-10T03:34:07.659Z,950.00
2017-05-10T03:35:08.284Z,950.04
2017-05-10T03:36:07.861Z,950.00
2017-05-10T03:37:07.694Z,949.98
2017-05-10T03:38:08.342Z,950.03
2017-05-10T03:39:08.471Z,949.96
2017-05-10T03:40:08.101Z,950.03
2017-05-10T03:41:07.737Z,950.02
2017-05-10T03:42:08.267Z,950.00
2017-05-10T03:43:08.053Z,949.97
2017-05-10T03:44:07.781Z,949.98
2017-05-10T03:45:08.351Z,949.97
2017-05-10T03:46:08.059Z,949.94
2017-05-10T03:47:07.758Z,949.97
2017-05-10T03:48:08.402Z,949.94
2017-05-10T03:49:08.506Z,949.97
2017-05-10T03:50:08.178Z,949.97
2017-05-10T03:51:07.816Z,949.96
2017-05-10T03:52:07.549Z,949.99
2017-05-10T03:53:08.207Z,949.94
2017-05-10T03:54:07.686Z,950.00
2017-05-10T03:55:08.316Z,949.96
2017-05-10T03:56:07.907Z,949.95
2017-05-10T03:57:07.640Z,949.96
2017-05-10T03:58:08.388Z,949.94
2017-05-10T03:59:08.044Z,949.99
2017-05-10T04:00:07.639Z,949.99
2017-05-10T04:01:08.282Z,949.96
2017-05-10T04:02:07.931Z,949.97
2017-05-10T04:03:07.841Z,949.97
2017-05-10T04:04:07.805Z,950.00
2017-05-10T04:05:07.478Z,949.92
2017-05-10T04:06:08.056Z,949.93
2017-05-10T04:07:07.883Z,949.89
2017-05-10T04:08:07.478Z,949.93
2017-05-10T04:09:08.198Z,949.91
2017-05-10T04:10:07.809Z,949.91
2017-05-10T04:11:07.433Z,949.93
2017-05-10T04:12:08.138Z,949.94
2017-05-10T04:13:07.841Z,949.93
2017-05-10T04:14:07.498Z,949.98
2017-05-10T04:15:08.074Z,949.97
2017-05-10T04:16:08.017Z,949.94
2017-05-10T04:17:07.730Z,949.99
2017-05-10T04:18:08.222Z,949.96
2017-05-10T04:19:08.004Z,949.96
2017-05-10T04:20:07.909Z,949.96
2017-05-10T04:21:26.259Z,950.02
2017-05-10T04:22:08.070Z,949.96
2017-05-10T04:23:07.960Z,949.91
2017-05-10T04:24:07.944Z,949.92
2017-05-10T04:25:10.376Z,949.85
2017-05-10T04:26:08.249Z,949.84
2017-05-10T04:27:07.916Z,949.86
2017-05-10T04:28:07.524Z,949.84
2017-05-10T04:29:08.329Z,949.88
2017-05-10T04:30:07.882Z,949.82
2017-05-10T04:31:07.456Z,949.81
2017-05-10T04:32:08.092Z,949.84
2017-05-10T04:33:07.834Z,949.81
2017-05-10T04:34:07.571Z,949.84
2017-05-10T04:35:08.056Z,949.84
2017-05-10T04:36:07.713Z,949.85
2017-05-10T04:37:08.376Z,949.86
2017-05-10T04:38:08.107Z,949.87
2017-05-10T04:39:07.804Z,949.86
2017-05-10T04:40:07.618Z,949.87
2017-05-10T04:41:08.290Z,949.85
2017-05-10T04:42:07.993Z,949.85
2017-05-10T04:43:07.769Z,949.84
2017-05-10T04:44:08.413Z,949.84
2017-05-10T04:45:08.091Z,949.83
2017-05-10T04:46:07.776Z,949.86
2017-05-10T04:47:08.401Z,949.86
2017-05-10T04:48:07.993Z,949.84
2017-05-10T04:49:07.824Z,949.84
2017-05-10T04:50:07.479Z,949.83
2017-05-10T04:51:08.177Z,949.85
2017-05-10T04:52:07.880Z,949.83
2017-05-10T04:53:07.529Z,949.83
2017-05-10T04:54:08.221Z,949.80
2017-05-10T04:55:07.871Z,949.82
2017-05-10T04:56:07.668Z,949.81
2017-05-10T04:57:08.322Z,949.80
2017-05-10T04:58:07.971Z,949.83
2017-05-10T04:59:07.714Z,949.82
2017-05-10T05:00:08.507Z,949.85
2017-05-10T05:01:08.325Z,949.86
2017-05-10T05:02:07.980Z,949.82
2017-05-10T05:03:07.419Z,949.86
2017-05-10T05:04:08.719Z,949.85
2017-05-10T05:05:08.320Z,949.86
2017-05-10T05:06:07.974Z,949.85
2017-05-10T05:07:07.564Z,949.85
2017-05-10T05:08:08.177Z,949.83
2017-05-10T05:09:07.832Z,949.83
2017-05-10T05:10:07.477Z,949.80
2017-05-10T05:11:08.422Z,949.81
2017-05-10T05:12:08.070Z,949.84
2017-05-10T05:13:07.737Z,949.81
2017-05-10T05:14:08.701Z,949.78
2017-05-10T05:15:08.266Z,949.79
2017-05-10T05:16:08.309Z,949.82
2017-05-10T05:17:08.039Z,949.82
2017-05-10T05:18:07.623Z,949.85
2017-05-10T05:19:08.249Z,949.81
2017-05-10T05:20:07.882Z,949.82
2017-05-10T05:21:07.561Z,949.80
2017-05-10T05:22:08.219Z,949.80
2017-05-10T05:23:07.782Z,949.83
2017-05-10T05:24:07.783Z,949.79
2017-05-10T05:25:07.567Z,949.76
2017-05-10T05:26:08.089Z,949.71
2017-05-10T05:27:07.830Z,949.73
2017-05-10T05:28:07.390Z,949.77
2017-05-10T05:29:08.179Z,949.73
2017-05-10T05:30:07.913Z,949.73
2017-05-10T05:31:07.689Z,949.76
2017-05-10T05:32:08.464Z,949.73
2017-05-10T05:33:08.075Z,949.75
2017-05-10T05:34:07.926Z,949.78
2017-05-10T05:35:07.591Z,949.73
2017-05-10T05:36:08.271Z,949.72
2017-05-10T05:37:08.026Z,949.70
2017-05-10T05:38:07.595Z,949.69
2017-05-10T05:39:08.276Z,949.71
2017-05-10T05:40:07.985Z,949.74
2017-05-10T05:41:07.576Z,949.71
2017-05-10T05:42:08.274Z,949.75
2017-05-10T05:43:08.040Z,949.76
2017-05-10T05:44:07.784Z,949.75
2017-05-10T05:45:07.515Z,949.77
2017-05-10T05:46:08.253Z,949.77
2017-05-10T05:47:07.903Z,949.78
2017-05-10T05:48:07.544Z,949.75
2017-05-10T05:49:08.368Z,949.78
2017-05-10T05:50:08.085Z,949.80
2017-05-10T05:51:07.728Z,949.77
2017-05-10T05:52:08.448Z,949.75
2017-05-10T05:53:08.071Z,949.75
2017-05-10T05:54:07.618Z,949.75
2017-05-10T05:55:08.290Z,949.77
2017-05-10T05:56:07.945Z,949.77
2017-05-10T05:57:07.586Z,949.73
2017-05-10T05:58:08.351Z,949.75
2017-05-10T05:59:08.045Z,949.71
2017-05-10T06:00:07.519Z,949.72
2017-05-10T06:01:08.329Z,949.70
2017-05-10T06:02:07.973Z,949.71
2017-05-10T06:03:07.568Z,949.71
2017-05-10T06:04:08.173Z,949.72
2017-05-10T06:05:07.918Z,949.68
2017-05-10T06:06:07.625Z,949.68
2017-05-10T06:07:08.326Z,949.66
2017-05-10T06:08:07.899Z,949.67
2017-05-10T06:09:07.598Z,949.69
2017-05-10T06:10:08.401Z,949.69
2017-05-10T06:11:08.086Z,949.63
2017-05-10T06:12:07.707Z,949.60
2017-05-10T06:13:08.390Z,949.61
2017-05-10T06:14:08.037Z,949.62
2017-05-10T06:15:07.729Z,949.58
2017-05-10T06:16:08.450Z,949.61
2017-05-10T06:17:08.165Z,949.60
2017-05-10T06:18:07.748Z,949.62
2017-05-10T06:19:08.382Z,949.61
2017-05-10T06:20:08.068Z,949.59
2017-05-10T06:21:07.717Z,949.60
2017-05-10T06:22:08.269Z,949.58
2017-05-10T06:23:07.929Z,949.59
2017-05-10T06:24:07.624Z,949.64
2017-05-10T06:25:08.375Z,949.59
2017-05-10T06:26:08.029Z,949.58
2017-05-10T06:27:07.626Z,949.56
2017-05-10T06:28:08.373Z,949.56
2017-05-10T06:29:08.133Z,949.57
2017-05-10T06:30:07.731Z,949.56
2017-05-10T06:31:08.425Z,949.55
2017-05-10T06:32:08.046Z,949.56
2017-05-10T06:33:07.682Z,949.55
2017-05-10T06:34:08.312Z,949.55
2017-05-10T06:35:07.972Z,949.52
2017-05-10T06:36:07.579Z,949.51
2017-05-10T06:37:08.286Z,949.51
2017-05-10T06:38:08.104Z,949.48
2017-05-10T06:39:07.702Z,949.43
2017-05-10T06:40:08.373Z,949.44
2017-05-10T06:41:08.065Z,949.43
2017-05-10T06:42:07.748Z,949.43
2017-05-10T06:43:08.377Z,949.47
2017-05-10T06:44:07.997Z,949.45
2017-05-10T06:45:07.859Z,949.42
2017-05-10T06:46:07.599Z,949.47
2017-05-10T06:47:08.271Z,949.51
2017-05-10T06:48:07.962Z,949.43
2017-05-10T06:49:07.717Z,949.46
2017-05-10T06:50:08.511Z,949.43
2017-05-10T06:51:08.347Z,949.47
2017-05-10T06:52:08.116Z,949.46
2017-05-10T06:53:07.988Z,949.42
2017-05-10T06:54:07.679Z,949.41
2017-05-10T06:55:08.551Z,949.44
2017-05-10T06:56:08.271Z,949.41
2017-05-10T06:57:07.928Z,949.42
2017-05-10T06:58:07.756Z,949.40
2017-05-10T06:59:07.221Z,949.44
2017-05-10T07:00:07.412Z,949.43
2017-05-10T07:01:08.118Z,949.46
2017-05-10T07:02:07.776Z,949.45
2017-05-10T07:03:07.346Z,949.48
2017-05-10T07:04:08.216Z,949.47
2017-05-10T07:05:08.016Z,949.48
2017-05-10T07:06:07.714Z,949.48
2017-05-10T07:07:08.367Z,949.44
2017-05-10T07:08:08.152Z,949.48
2017-05-10T07:09:07.894Z,949.45
2017-05-10T07:10:07.707Z,949.46
2017-05-10T07:11:08.319Z,949.40
2017-05-10T07:12:08.053Z,949.44
2017-05-10T07:13:07.758Z,949.43
2017-05-10T07:14:07.458Z,949.45
2017-05-10T07:15:08.186Z,949.47
2017-05-10T07:16:07.959Z,949.43
2017-05-10T07:17:07.793Z,949.47
2017-05-10T07:18:07.485Z,949.47
2017-05-10T07:19:08.153Z,949.42
2017-05-10T07:20:07.760Z,949.40
2017-05-10T07:21:07.441Z,949.43
2017-05-10T07:22:08.253Z,949.38
2017-05-10T07:23:07.975Z,949.43
2017-05-10T07:24:07.596Z,949.39
2017-05-10T07:25:08.458Z,949.41
2017-05-10T07:26:07.943Z,949.41
2017-05-10T07:27:07.642Z,949.39
2017-05-10T07:28:08.365Z,949.40
2017-05-10T07:29:08.126Z,949.38
2017-05-10T07:30:07.776Z,949.44
2017-05-10T07:31:07.513Z,949.44
2017-05-10T07:32:08.986Z,949.41
2017-05-10T07:33:07.759Z,949.42
2017-05-10T07:34:07.666Z,949.37
2017-05-10T07:35:08.249Z,949.37
2017-05-10T07:36:07.809Z,949.35
2017-05-10T07:37:07.510Z,949.32
2017-05-10T07:38:08.439Z,949.33
2017-05-10T07:39:08.217Z,949.32
2017-05-10T07:40:07.848Z,949.34
2017-05-10T07:41:07.536Z,949.30
2017-05-10T07:42:08.248Z,949.25
2017-05-10T07:43:07.947Z,949.29
2017-05-10T07:44:07.766Z,949.29
2017-05-10T07:45:07.422Z,949.27
2017-05-10T07:46:08.161Z,949.25
2017-05-10T07:47:07.885Z,949.23
2017-05-10T07:48:07.615Z,949.24
2017-05-10T07:49:08.445Z,949.23
2017-05-10T07:50:08.271Z,949.21
2017-05-10T07:51:07.982Z,949.17
2017-05-10T07:52:07.649Z,949.18
2017-05-10T07:53:08.202Z,949.14
2017-05-10T07:54:07.875Z,949.18
2017-05-10T07:55:07.470Z,949.25
2017-05-10T07:56:08.174Z,949.17
2017-05-10T07:57:07.825Z,949.25
2017-05-10T07:58:07.321Z,949.18
2017-05-10T07:59:07.770Z,949.21
2017-05-10T08:00:07.431Z,949.13
2017-05-10T08:01:08.106Z,949.17
2017-05-10T08:02:07.921Z,949.11
2017-05-10T08:03:07.591Z,949.19
2017-05-10T08:04:25.990Z,949.16
2017-05-10T08:05:26.212Z,949.18
2017-05-10T08:06:07.857Z,949.18
2017-05-10T08:07:07.412Z,949.18
2017-05-10T08:08:08.041Z,949.13
2017-05-10T08:09:07.741Z,949.18
2017-05-10T08:10:07.509Z,949.16
2017-05-10T08:11:08.187Z,949.15
2017-05-10T08:12:07.952Z,949.13
2017-05-10T08:13:07.764Z,949.15
2017-05-10T08:14:07.634Z,949.13
2017-05-10T08:15:08.400Z,949.09
2017-05-10T08:16:08.015Z,949.09
2017-05-10T08:17:07.726Z,949.15
2017-05-10T08:18:08.264Z,949.11
2017-05-10T08:19:07.978Z,949.13
2017-05-10T08:20:07.612Z,949.08
2017-05-10T08:21:08.269Z,949.06
2017-05-10T08:22:07.924Z,949.03
2017-05-10T08:23:07.567Z,949.09
2017-05-10T08:24:08.242Z,949.04
2017-05-10T08:25:07.852Z,949.01
2017-05-10T08:26:07.747Z,948.93
2017-05-10T08:27:07.401Z,948.95
2017-05-10T08:28:08.826Z,948.94
2017-05-10T08:29:07.492Z,948.95
2017-05-10T08:30:08.389Z,948.95
2017-05-10T08:31:07.952Z,948.91
2017-05-10T08:32:07.652Z,948.88
2017-05-10T08:33:08.311Z,948.88
2017-05-10T08:34:08.123Z,948.85
2017-05-10T08:35:07.781Z,948.87
2017-05-10T08:36:07.417Z,948.84
2017-05-10T08:37:08.123Z,948.89
2017-05-10T08:38:07.839Z,948.85
2017-05-10T08:39:07.703Z,948.88
2017-05-10T08:40:08.265Z,948.86
2017-05-10T08:41:08.151Z,948.86
2017-05-10T08:42:07.824Z,948.83
2017-05-10T08:43:07.703Z,948.81
2017-05-10T08:44:08.361Z,948.82
2017-05-10T08:45:08.102Z,948.80
2017-05-10T08:46:07.993Z,948.74
2017-05-10T08:47:07.658Z,948.71
2017-05-10T08:48:08.316Z,948.78
2017-05-10T08:49:07.983Z,948.81
2017-05-10T08:50:07.584Z,948.79
2017-05-10T08:51:08.338Z,948.79
2017-05-10T08:52:08.111Z,948.74
2017-05-10T08:53:07.765Z,948.74
2017-05-10T08:54:07.469Z,948.75
2017-05-10T08:55:09.321Z,948.77
2017-05-10T08:56:08.183Z,948.77
2017-05-10T08:57:07.867Z,948.75
2017-05-10T08:58:07.531Z,948.78
2017-05-10T08:59:08.181Z,948.71
2017-05-10T09:00:07.747Z,948.75
2017-05-10T09:01:08.337Z,948.70
2017-05-10T09:02:07.987Z,948.72
2017-05-10T09:03:07.658Z,948.74
2017-05-10T09:04:08.405Z,948.75
2017-05-10T09:05:08.084Z,948.76
2017-05-10T09:06:07.865Z,948.73
2017-05-10T09:07:07.558Z,948.71
2017-05-10T09:08:08.357Z,948.74
2017-05-10T09:09:07.929Z,948.70
2017-05-10T09:10:07.625Z,948.71
2017-05-10T09:11:08.436Z,948.66
2017-05-10T09:12:08.134Z,948.67
2017-05-10T09:13:07.768Z,948.69
2017-05-10T09:14:26.127Z,948.66
2017-05-10T09:15:07.736Z,948.66
2017-05-10T09:16:07.495Z,948.62
2017-05-10T09:17:08.283Z,948.66
2017-05-10T09:18:07.869Z,948.61
2017-05-10T09:19:07.725Z,948.63
2017-05-10T09:20:08.395Z,948.67
2017-05-10T09:21:08.022Z,948.60
2017-05-10T09:23:08.089Z,948.59
2017-05-10T09:24:07.669Z,948.61
2017-05-10T09:25:08.459Z,948.53
2017-05-10T09:26:08.285Z,948.62
2017-05-10T09:27:07.939Z,948.62
2017-05-10T09:28:07.568Z,948.60
2017-05-10T09:29:08.259Z,948.62
2017-05-10T09:30:08.051Z,948.59
2017-05-10T09:31:07.988Z,948.60
2017-05-10T09:32:07.769Z,948.54
2017-05-10T09:33:07.516Z,948.57
2017-05-10T09:34:08.166Z,948.56
2017-05-10T09:35:07.897Z,948.54
2017-05-10T09:36:07.461Z,948.56
2017-05-10T09:37:08.218Z,948.53
2017-05-10T09:38:07.875Z,948.58
2017-05-10T09:39:07.442Z,948.58
2017-05-10T09:40:08.079Z,948.57
2017-05-10T09:41:07.634Z,948.54
2017-05-10T09:42:08.238Z,948.55
2017-05-10T09:43:08.125Z,948.51
2017-05-10T09:44:07.872Z,948.47
2017-05-10T09:45:07.733Z,948.53
2017-05-10T09:46:08.320Z,948.50
2017-05-10T09:47:08.076Z,948.50
2017-05-10T09:48:07.719Z,948.53
2017-05-10T09:49:08.361Z,948.52
2017-05-10T09:50:08.058Z,948.53
2017-05-10T09:51:07.652Z,948.54
2017-05-10T09:52:27.876Z,948.52
2017-05-10T09:53:07.497Z,948.47
2017-05-10T09:54:07.976Z,948.49
2017-05-10T09:55:08.076Z,948.45
2017-05-10T09:56:07.789Z,948.42
2017-05-10T09:57:07.401Z,948.44
2017-05-10T09:58:08.273Z,948.42
2017-05-10T09:59:26.663Z,948.40
2017-05-10T10:00:08.466Z,948.41
2017-05-10T10:01:08.033Z,948.47
2017-05-10T10:02:07.705Z,948.42
2017-05-10T10:03:08.457Z,948.42
2017-05-10T10:04:08.157Z,948.41
2017-05-10T10:05:07.871Z,948.43
2017-05-10T10:06:07.567Z,948.40
2017-05-10T10:07:08.236Z,948.39
2017-05-10T10:08:07.815Z,948.41
2017-05-10T10:09:07.577Z,948.40
2017-05-10T10:10:08.326Z,948.44
2017-05-10T10:11:07.947Z,948.41
2017-05-10T10:12:07.743Z,948.40
2017-05-10T10:13:08.525Z,948.40
2017-05-10T10:14:08.220Z,948.38
2017-05-10T10:15:07.839Z,948.36
2017-05-10T10:16:07.558Z,948.41
2017-05-10T10:17:08.405Z,948.38
2017-05-10T10:18:08.315Z,948.41
2017-05-10T10:19:07.986Z,948.36
2017-05-10T10:20:07.626Z,948.37
2017-05-10T10:21:08.301Z,948.42
2017-05-10T10:22:08.107Z,948.37
2017-05-10T10:23:07.743Z,948.33
2017-05-10T10:24:08.362Z,948.34
2017-05-10T10:25:07.958Z,948.32
2017-05-10T10:26:07.643Z,948.31
2017-05-10T10:27:08.524Z,948.32
2017-05-10T10:28:08.117Z,948.29
2017-05-10T10:29:07.684Z,948.33
2017-05-10T10:30:09.269Z,948.35
2017-05-10T10:31:08.079Z,948.31
2017-05-10T10:32:07.709Z,948.30
2017-05-10T10:33:08.580Z,948.23
2017-05-10T10:34:08.343Z,948.22
2017-05-10T10:35:07.974Z,948.19
2017-05-10T10:36:07.628Z,948.19
2017-05-10T10:37:08.351Z,948.16
2017-05-10T10:38:07.997Z,948.15
2017-05-10T10:39:07.579Z,948.17
2017-05-10T10:40:08.320Z,948.19
2017-05-10T10:41:07.944Z,948.21
2017-05-10T10:42:07.768Z,948.15
2017-05-10T10:43:07.419Z,948.17
2017-05-10T10:44:08.098Z,948.18
2017-05-10T10:45:07.846Z,948.14
2017-05-10T10:46:07.500Z,948.15
2017-05-10T10:47:08.077Z,948.14
2017-05-10T10:48:07.729Z,948.18
2017-05-10T10:49:08.205Z,948.17
2017-05-10T10:50:07.683Z,948.15
2017-05-10T10:51:08.392Z,948.14
2017-05-10T10:52:08.042Z,948.14
2017-05-10T10:53:07.757Z,948.12
2017-05-10T10:54:08.415Z,948.08
2017-05-10T10:55:08.039Z,948.15
2017-05-10T10:56:07.978Z,948.11
2017-05-10T10:57:07.586Z,948.11
2017-05-10T10:58:08.398Z,948.07
2017-05-10T10:59:08.055Z,948.02
2017-05-10T11:00:07.775Z,947.99
2017-05-10T11:01:07.378Z,947.95
2017-05-10T11:02:08.300Z,947.95
2017-05-10T11:03:08.143Z,947.93
2017-05-10T11:04:07.879Z,947.92
2017-05-10T11:05:07.677Z,947.93
2017-05-10T11:06:08.447Z,947.94
2017-05-10T11:07:07.990Z,947.96
2017-05-10T11:08:07.677Z,947.93
2017-05-10T11:09:08.390Z,947.94
2017-05-10T11:10:07.980Z,947.92
2017-05-10T11:11:07.587Z,947.90
2017-05-10T11:12:08.459Z,947.88
2017-05-10T11:13:08.072Z,947.90
2017-05-10T11:14:07.787Z,947.89
2017-05-10T11:15:07.420Z,947.88
2017-05-10T11:16:08.300Z,947.86
2017-05-10T11:17:08.074Z,947.88
2017-05-10T11:18:07.720Z,947.87
2017-05-10T11:19:08.316Z,947.84
2017-05-10T11:20:08.001Z,947.82
2017-05-10T11:21:07.853Z,947.83
2017-05-10T11:22:07.512Z,947.80
2017-05-10T11:23:08.135Z,947.81
2017-05-10T11:24:07.796Z,947.78
2017-05-10T11:25:07.494Z,947.83
2017-05-10T11:26:08.187Z,947.84
2017-05-10T11:27:07.899Z,947.81
2017-05-10T11:28:07.833Z,947.82
2017-05-10T11:29:07.543Z,947.84
2017-05-10T11:30:08.330Z,947.83
2017-05-10T11:31:08.053Z,947.80
2017-05-10T11:32:07.824Z,947.78
2017-05-10T11:33:07.445Z,947.81
2017-05-10T11:34:08.125Z,947.77
2017-05-10T11:35:08.440Z,947.76
2017-05-10T11:36:08.061Z,947.76
2017-05-10T11:37:07.823Z,947.70
2017-05-10T11:38:07.841Z,947.75
2017-05-10T11:39:13.051Z,947.69
2017-05-10T11:40:07.827Z,947.68
2017-05-10T11:41:07.544Z,947.75
2017-05-10T11:42:32.812Z,947.67
2017-05-10T11:43:07.444Z,947.72
2017-05-10T11:44:08.160Z,947.64
2017-05-10T11:45:08.131Z,947.64
2017-05-10T11:46:07.641Z,947.64
2017-05-10T11:47:07.879Z,947.64
2017-05-10T11:48:07.563Z,947.64
2017-05-10T11:49:08.377Z,947.62
2017-05-10T11:50:08.132Z,947.66
2017-05-10T11:51:08.034Z,947.60
2017-05-10T11:52:07.739Z,947.60
2017-05-10T11:53:08.585Z,947.58
2017-05-10T11:54:08.411Z,947.58
2017-05-10T11:55:08.067Z,947.52
2017-05-10T11:56:07.777Z,947.56
2017-05-10T11:57:07.416Z,947.55
2017-05-10T11:58:08.278Z,947.55
2017-05-10T11:59:07.930Z,947.57
2017-05-10T12:00:07.698Z,947.53
2017-05-10T12:01:08.392Z,947.52
2017-05-10T12:02:08.031Z,947.50
2017-05-10T12:03:07.704Z,947.51
2017-05-10T12:04:08.517Z,947.52
2017-05-10T12:05:08.146Z,947.50
2017-05-10T12:06:07.841Z,947.48
2017-05-10T12:07:07.703Z,947.48
2017-05-10T12:08:08.343Z,947.37
2017-05-10T12:09:07.983Z,947.42
2017-05-10T12:10:07.692Z,947.39
2017-05-10T12:11:08.433Z,947.37
2017-05-10T12:12:08.235Z,947.29
2017-05-10T12:13:07.846Z,947.33
2017-05-10T12:14:07.568Z,947.30
2017-05-10T12:15:08.145Z,947.39
2017-05-10T12:16:07.835Z,947.32
2017-05-10T12:17:07.605Z,947.30
2017-05-10T12:18:08.399Z,947.26
2017-05-10T12:19:08.085Z,947.25
2017-05-10T12:20:07.779Z,947.25
2017-05-10T12:21:07.621Z,947.24
2017-05-10T12:22:08.240Z,947.19
2017-05-10T12:23:08.070Z,947.17
2017-05-10T12:24:07.737Z,947.20
2017-05-10T12:25:08.498Z,947.22
2017-05-10T12:26:08.138Z,947.17
2017-05-10T12:27:07.766Z,947.16
2017-05-10T12:28:07.416Z,947.14
2017-05-10T12:29:08.020Z,947.16
2017-05-10T12:30:07.667Z,947.09